Time;durP1;ratioP1;P1;durP2;ratioP2;P2;SDS_P1;SDS_P2;PMS_P1;PMS_P2;Temp;Humidity;BMP_temperature;BMP_pressure;BME280_temperature;BME280_humidity;BME280_pressure;Samples;Min_cycle;Max_cycle;Signal;HPM_P1;HPM_P2
2021/08/04 00:01:49;;;;;;;;;;;14.30;99.90;;;;;;6345148;28;19972;-69
2021/08/04 00:04:51;;;;;;;;;;;14.30;99.90;;;;;;6343059;28;20076;-69
2021/08/04 00:07:52;;;;;;;;;;;14.20;99.90;;;;;;6341340;28;19986;-69
2021/08/04 00:10:54;;;;;;;;;;;14.20;99.90;;;;;;6348952;28;19976;-69
2021/08/04 00:13:55;;;;;;;;;;;14.20;99.90;;;;;;6323823;28;19983;-69
2021/08/04 00:16:57;;;;;;;;;;;14.20;99.90;;;;;;6346626;28;19980;-69
2021/08/04 00:19:59;;;;;;;;;;;14.10;99.90;;;;;;6332973;28;19996;-69
2021/08/04 00:23:01;;;;;;;;;;;14.00;99.90;;;;;;6318582;28;19975;-69
2021/08/04 00:26:03;;;;;;;;;;;14.00;99.90;;;;;;6346474;28;20356;-69
2021/08/04 00:29:04;;;;;;;;;;;14.00;99.90;;;;;;6344735;28;19991;-69
2021/08/04 00:32:06;;;;;;;;;;;14.00;99.90;;;;;;6340198;28;19976;-69
2021/08/04 00:35:08;;;;;;;;;;;14.00;99.90;;;;;;6317375;28;19980;-69
2021/08/04 00:38:13;;;;;;;;;;;13.90;99.90;;;;;;6321890;28;19976;-69
2021/08/04 00:41:15;;;;;;;;;;;13.90;99.90;;;;;;6347926;28;19976;-69
2021/08/04 00:44:17;;;;;;;;;;;13.80;99.90;;;;;;6345365;28;20054;-69
2021/08/04 00:47:19;;;;;;;;;;;13.80;99.90;;;;;;6314775;28;19999;-69
2021/08/04 00:50:21;;;;;;;;;;;13.70;99.90;;;;;;6347814;28;20007;-69
2021/08/04 00:53:24;;;;;;;;;;;13.70;99.90;;;;;;6345972;28;20037;-69
2021/08/04 00:56:27;;;;;;;;;;;13.70;99.90;;;;;;6345534;28;20468;-69
2021/08/04 00:59:28;;;;;;;;;;;13.70;99.90;;;;;;6339372;28;20045;-69
2021/08/04 01:02:33;;;;;;;;;;;13.60;99.90;;;;;;6342181;28;20316;-69
2021/08/04 01:05:37;;;;;;;;;;;13.60;99.90;;;;;;6343044;28;19976;-69
2021/08/04 01:08:42;;;;;;;;;;;13.60;99.90;;;;;;6339708;28;19995;-69
2021/08/04 01:11:46;;;;;;;;;;;13.60;99.90;;;;;;6347056;28;20431;-69
2021/08/04 01:14:51;;;;;;;;;;;13.60;99.90;;;;;;6321515;28;19984;-69
2021/08/04 01:17:53;;;;;;;;;;;13.50;99.90;;;;;;6336831;28;20017;-69
2021/08/04 01:20:55;;;;;;;;;;;13.50;99.90;;;;;;6333893;28;20049;-69
2021/08/04 01:24:05;;;;;;;;;;;13.50;99.90;;;;;;6344381;28;20080;-69
2021/08/04 01:27:11;;;;;;;;;;;13.50;99.90;;;;;;6325210;28;20066;-69
2021/08/04 01:30:13;;;;;;;;;;;13.50;99.90;;;;;;6345991;28;19983;-69
2021/08/04 01:33:15;;;;;;;;;;;13.50;99.90;;;;;;6342349;28;19983;-69
2021/08/04 01:36:18;;;;;;;;;;;13.40;99.90;;;;;;6344870;28;19928;-69
2021/08/04 01:39:20;;;;;;;;;;;13.40;99.90;;;;;;6318127;28;19987;-69
2021/08/04 01:42:22;;;;;;;;;;;13.40;99.90;;;;;;6342687;28;19979;-69
2021/08/04 01:45:24;;;;;;;;;;;13.40;99.90;;;;;;6342295;28;20029;-69
2021/08/04 01:48:26;;;;;;;;;;;13.40;99.90;;;;;;6321662;28;19991;-69
2021/08/04 01:51:28;;;;;;;;;;;13.40;99.90;;;;;;6319102;28;19980;-69
2021/08/04 01:54:30;;;;;;;;;;;13.40;99.90;;;;;;6341756;28;19983;-69
2021/08/04 01:57:32;;;;;;;;;;;13.40;99.90;;;;;;6336551;28;20395;-69
2021/08/04 02:00:33;;;;;;;;;;;13.40;99.90;;;;;;6346449;28;19976;-69
2021/08/04 02:03:35;;;;;;;;;;;13.30;99.90;;;;;;6341933;28;19991;-70
2021/08/04 02:06:37;;;;;;;;;;;13.30;99.90;;;;;;6344070;28;19976;-69
2021/08/04 02:09:45;;;;;;;;;;;13.30;99.90;;;;;;6312289;28;19983;-69
2021/08/04 02:12:50;;;;;;;;;;;13.30;99.90;;;;;;6341912;28;19983;-69
2021/08/04 02:15:54;;;;;;;;;;;13.20;99.90;;;;;;6342905;28;20427;-69
2021/08/04 02:19:07;;;;;;;;;;;13.20;99.90;;;;;;6317623;28;19996;-69
2021/08/04 02:22:19;;;;;;;;;;;13.20;99.90;;;;;;6339237;28;19980;-69
2021/08/04 02:25:20;;;;;;;;;;;13.20;99.90;;;;;;6312815;28;20369;-69
2021/08/04 02:28:23;;;;;;;;;;;13.20;99.90;;;;;;6312836;28;19987;-69
2021/08/04 02:31:24;;;;;;;;;;;13.10;99.90;;;;;;6318440;28;19972;-69
2021/08/04 02:34:27;;;;;;;;;;;13.10;99.90;;;;;;6342497;28;20431;-69
2021/08/04 02:37:29;;;;;;;;;;;13.10;99.90;;;;;;6341955;28;19972;-69
2021/08/04 02:40:31;;;;;;;;;;;13.10;99.90;;;;;;6344664;28;19983;-69
2021/08/04 02:43:32;;;;;;;;;;;13.10;99.90;;;;;;6315185;28;20439;-69
2021/08/04 02:46:34;;;;;;;;;;;13.10;99.90;;;;;;6342928;28;19975;-69
2021/08/04 02:49:36;;;;;;;;;;;13.10;99.90;;;;;;6317786;28;20388;-69
2021/08/04 02:52:38;;;;;;;;;;;13.10;99.90;;;;;;6339392;28;20369;-69
2021/08/04 02:55:40;;;;;;;;;;;13.10;99.90;;;;;;6341780;28;20005;-69
2021/08/04 02:58:42;;;;;;;;;;;13.10;99.90;;;;;;6337648;28;20441;-69
2021/08/04 03:01:43;;;;;;;;;;;13.10;99.90;;;;;;6318015;28;19975;-69
2021/08/04 03:04:45;;;;;;;;;;;13.10;99.90;;;;;;6313049;28;19979;-69
2021/08/04 03:07:47;;;;;;;;;;;13.10;99.90;;;;;;6336627;28;20435;-69
2021/08/04 03:10:49;;;;;;;;;;;13.20;99.90;;;;;;6344794;28;20315;-69
2021/08/04 03:13:50;;;;;;;;;;;13.20;99.90;;;;;;6325568;28;19972;-69
2021/08/04 03:16:52;;;;;;;;;;;13.20;99.90;;;;;;6342692;28;19983;-69
2021/08/04 03:19:53;;;;;;;;;;;13.30;99.90;;;;;;6330514;28;20073;-69
2021/08/04 03:22:55;;;;;;;;;;;13.30;99.90;;;;;;6310796;28;20431;-69
2021/08/04 03:25:57;;;;;;;;;;;13.30;99.90;;;;;;6313180;28;20033;-69
2021/08/04 03:28:58;;;;;;;;;;;13.30;99.90;;;;;;6315220;28;20000;-69
2021/08/04 03:32:00;;;;;;;;;;;13.30;99.90;;;;;;6343634;28;20314;-69
2021/08/04 03:35:02;;;;;;;;;;;13.30;99.90;;;;;;6341451;28;19980;-69
2021/08/04 03:38:03;;;;;;;;;;;13.30;99.90;;;;;;6340466;28;19992;-69
2021/08/04 03:41:06;;;;;;;;;;;13.20;99.90;;;;;;6343849;28;20453;-70
2021/08/04 03:44:07;;;;;;;;;;;13.20;99.90;;;;;;6321373;28;20356;-69
2021/08/04 03:47:09;;;;;;;;;;;13.20;99.90;;;;;;6340640;28;19987;-69
2021/08/04 03:50:11;;;;;;;;;;;13.20;99.90;;;;;;6344075;28;20450;-69
2021/08/04 03:53:12;;;;;;;;;;;13.20;99.90;;;;;;6315572;28;19975;-69
2021/08/04 03:56:14;;;;;;;;;;;13.10;99.90;;;;;;6342112;28;20000;-69
2021/08/04 03:59:16;;;;;;;;;;;13.10;99.90;;;;;;6309297;28;19983;-69
2021/08/04 04:02:17;;;;;;;;;;;13.10;99.90;;;;;;6342679;28;20102;-69
2021/08/04 04:05:19;;;;;;;;;;;13.00;99.90;;;;;;6317552;28;19972;-69
2021/08/04 04:08:21;;;;;;;;;;;13.00;99.90;;;;;;6331315;28;19991;-69
2021/08/04 04:11:22;;;;;;;;;;;13.00;99.90;;;;;;6348641;28;19979;-69
2021/08/04 04:14:24;;;;;;;;;;;13.00;99.90;;;;;;6322323;28;19976;-69
2021/08/04 04:17:26;;;;;;;;;;;13.00;99.90;;;;;;6342186;28;20027;-69
2021/08/04 04:20:27;;;;;;;;;;;13.00;99.90;;;;;;6325286;28;20003;-69
2021/08/04 04:23:29;;;;;;;;;;;13.00;99.90;;;;;;6347011;28;20452;-69
2021/08/04 04:26:31;;;;;;;;;;;12.90;99.90;;;;;;6316697;28;19976;-69
2021/08/04 04:29:32;;;;;;;;;;;12.90;99.90;;;;;;6344579;28;20473;-69
2021/08/04 04:32:34;;;;;;;;;;;12.90;99.90;;;;;;6346700;28;19975;-69
2021/08/04 04:35:36;;;;;;;;;;;12.90;99.90;;;;;;6346448;28;19987;-69
2021/08/04 04:38:37;;;;;;;;;;;12.90;99.90;;;;;;6343218;28;19980;-69
2021/08/04 04:41:39;;;;;;;;;;;12.90;99.90;;;;;;6348244;28;19978;-69
2021/08/04 04:44:41;;;;;;;;;;;12.90;99.90;;;;;;6345144;28;19976;-67
2021/08/04 04:47:42;;;;;;;;;;;12.90;99.90;;;;;;6340991;28;19991;-67
2021/08/04 04:50:44;;;;;;;;;;;13.00;99.90;;;;;;6342276;28;20035;-67
2021/08/04 04:53:46;;;;;;;;;;;13.00;99.90;;;;;;6346191;28;19988;-67
2021/08/04 04:56:48;;;;;;;;;;;13.00;99.90;;;;;;6344971;28;20365;-66
2021/08/04 04:59:49;;;;;;;;;;;13.10;99.90;;;;;;6341403;28;19976;-67
2021/08/04 05:02:51;;;;;;;;;;;13.10;99.90;;;;;;6327436;28;20456;-67
2021/08/04 05:05:53;;;;;;;;;;;13.20;99.90;;;;;;6345605;28;20188;-67
2021/08/04 05:08:54;;;;;;;;;;;13.20;99.90;;;;;;6343415;28;19995;-67
2021/08/04 05:11:56;;;;;;;;;;;13.30;99.90;;;;;;6346990;28;19998;-66
2021/08/04 05:14:58;;;;;;;;;;;13.30;99.90;;;;;;6318237;28;20032;-67
2021/08/04 05:17:59;;;;;;;;;;;13.40;99.90;;;;;;6340809;28;20453;-67
2021/08/04 05:21:01;;;;;;;;;;;13.50;99.90;;;;;;6334540;28;19996;-67
2021/08/04 05:24:03;;;;;;;;;;;13.60;99.90;;;;;;6345485;28;19990;-67
2021/08/04 05:27:05;;;;;;;;;;;13.70;99.90;;;;;;6312220;28;19983;-66
2021/08/04 05:30:07;;;;;;;;;;;13.80;99.90;;;;;;6320283;28;20002;-67
2021/08/04 05:33:08;;;;;;;;;;;13.90;99.90;;;;;;6344865;28;19976;-67
2021/08/04 05:36:10;;;;;;;;;;;13.90;99.90;;;;;;6344869;28;19972;-67
2021/08/04 05:39:12;;;;;;;;;;;14.00;99.90;;;;;;6344898;28;20446;-67
2021/08/04 05:42:13;;;;;;;;;;;14.00;99.90;;;;;;6313005;28;19976;-67
2021/08/04 05:45:21;;;;;;;;;;;14.00;99.90;;;;;;6324171;28;19980;-67
2021/08/04 05:48:23;;;;;;;;;;;14.00;99.90;;;;;;6320170;28;19988;-67
2021/08/04 05:51:25;;;;;;;;;;;14.00;99.90;;;;;;6309161;28;19976;-67
2021/08/04 05:54:26;;;;;;;;;;;14.00;99.90;;;;;;6319983;28;19997;-67
2021/08/04 05:57:28;;;;;;;;;;;14.00;99.90;;;;;;6333413;28;19982;-67
2021/08/04 06:00:29;;;;;;;;;;;14.10;99.90;;;;;;6342876;28;19986;-67
2021/08/04 06:03:31;;;;;;;;;;;14.10;99.90;;;;;;6344291;28;19971;-67
2021/08/04 06:06:33;;;;;;;;;;;14.10;99.90;;;;;;6343812;28;20043;-67
2021/08/04 06:09:34;;;;;;;;;;;14.10;99.90;;;;;;6338977;28;20060;-67
2021/08/04 06:12:36;;;;;;;;;;;14.20;99.90;;;;;;6326013;28;19979;-67
2021/08/04 06:15:38;;;;;;;;;;;14.10;99.90;;;;;;6343886;28;19983;-67
2021/08/04 06:18:40;;;;;;;;;;;14.20;99.90;;;;;;6332968;28;20070;-67
2021/08/04 06:21:42;;;;;;;;;;;14.20;99.90;;;;;;6340560;28;19980;-67
2021/08/04 06:24:43;;;;;;;;;;;14.30;99.90;;;;;;6342653;28;20368;-67
2021/08/04 06:27:45;;;;;;;;;;;14.30;99.90;;;;;;6341717;28;20486;-67
2021/08/04 06:30:47;;;;;;;;;;;14.30;99.90;;;;;;6345121;28;19979;-67
2021/08/04 06:33:48;;;;;;;;;;;14.30;99.90;;;;;;6343602;28;19975;-67
2021/08/04 06:36:50;;;;;;;;;;;14.40;99.90;;;;;;6341997;28;19972;-67
2021/08/04 06:39:51;;;;;;;;;;;14.40;99.90;;;;;;6340284;28;19976;-67
2021/08/04 06:42:54;;;;;;;;;;;14.50;99.90;;;;;;6343883;28;20081;-67
2021/08/04 06:45:56;;;;;;;;;;;14.60;99.90;;;;;;6342846;28;19976;-67
2021/08/04 06:48:58;;;;;;;;;;;14.80;99.90;;;;;;6319658;28;20390;-67
2021/08/04 06:51:59;;;;;;;;;;;14.90;99.90;;;;;;6344395;28;19975;-67
2021/08/04 06:55:04;;;;;;;;;;;15.10;99.90;;;;;;6322158;28;19968;-66
2021/08/04 06:58:06;;;;;;;;;;;15.20;99.90;;;;;;6315937;28;20130;-66
2021/08/04 07:01:07;;;;;;;;;;;15.30;99.90;;;;;;6320117;28;19976;-67
2021/08/04 07:04:09;;;;;;;;;;;15.40;99.90;;;;;;6307625;28;19983;-67
2021/08/04 07:07:14;;;;;;;;;;;15.50;99.90;;;;;;6340536;28;20363;-67
2021/08/04 07:10:16;;;;;;;;;;;15.60;99.90;;;;;;6306574;28;19991;-66
2021/08/04 07:13:18;;;;;;;;;;;15.70;99.90;;;;;;6343249;28;19976;-66
2021/08/04 07:16:19;;;;;;;;;;;15.70;99.90;;;;;;6342884;28;19980;-67
2021/08/04 07:19:21;;;;;;;;;;;15.80;99.90;;;;;;6307206;28;20466;-66
2021/08/04 07:22:23;;;;;;;;;;;15.90;99.90;;;;;;6337010;28;19976;-66
2021/08/04 07:25:24;;;;;;;;;;;16.00;99.90;;;;;;6342879;28;19987;-67
2021/08/04 07:28:27;;;;;;;;;;;16.00;99.90;;;;;;6341743;28;19991;-67
2021/08/04 07:31:28;;;;;;;;;;;16.10;99.90;;;;;;6314007;28;19965;-67
2021/08/04 07:34:30;;;;;;;;;;;16.10;99.90;;;;;;6340770;28;19971;-67
2021/08/04 07:37:32;;;;;;;;;;;16.20;99.90;;;;;;6310484;28;19980;-67
2021/08/04 07:40:34;;;;;;;;;;;16.30;99.90;;;;;;6326315;28;19976;-67
2021/08/04 07:43:35;;;;;;;;;;;16.30;99.90;;;;;;6345464;28;20431;-67
2021/08/04 07:46:37;;;;;;;;;;;16.40;99.90;;;;;;6341506;28;19983;-67
2021/08/04 07:49:39;;;;;;;;;;;16.50;99.90;;;;;;6342402;28;19991;-67
2021/08/04 07:52:40;;;;;;;;;;;16.60;99.90;;;;;;6340882;28;19999;-66
2021/08/04 07:55:42;;;;;;;;;;;16.70;99.90;;;;;;6347478;28;19976;-67
2021/08/04 07:58:44;;;;;;;;;;;16.90;99.90;;;;;;6343607;28;19972;-67
2021/08/04 08:01:45;;;;;;;;;;;17.10;99.90;;;;;;6348566;28;19978;-67
2021/08/04 08:04:47;;;;;;;;;;;17.20;99.90;;;;;;6345328;28;19986;-67
2021/08/04 08:07:49;;;;;;;;;;;17.30;99.90;;;;;;6343782;28;19991;-67
2021/08/04 08:10:51;;;;;;;;;;;17.40;99.90;;;;;;6348141;28;19971;-67
2021/08/04 08:13:53;;;;;;;;;;;17.50;99.90;;;;;;6347542;28;19979;-67
2021/08/04 08:16:55;;;;;;;;;;;17.50;99.90;;;;;;6346599;28;20020;-67
2021/08/04 08:19:57;;;;;;;;;;;17.50;99.90;;;;;;6334057;28;20044;-67
2021/08/04 08:22:59;;;;;;;;;;;17.60;99.90;;;;;;6342004;28;20439;-67
2021/08/04 08:26:00;;;;;;;;;;;17.60;99.90;;;;;;6346609;28;19983;-67
2021/08/04 08:29:03;;;;;;;;;;;17.70;99.90;;;;;;6345261;28;19950;-67
2021/08/04 08:32:04;;;;;;;;;;;17.80;99.90;;;;;;6340795;28;19975;-67
2021/08/04 08:35:07;;;;;;;;;;;17.80;99.90;;;;;;6345326;28;20023;-67
2021/08/04 08:38:08;;;;;;;;;;;17.90;99.90;;;;;;6321838;28;19983;-67
2021/08/04 08:41:10;;;;;;;;;;;17.90;99.90;;;;;;6348375;28;19983;-67
2021/08/04 08:44:12;;;;;;;;;;;17.90;99.90;;;;;;6341800;28;19992;-67
2021/08/04 08:47:14;;;;;;;;;;;17.90;99.90;;;;;;6314916;28;19976;-67
2021/08/04 08:50:18;;;;;;;;;;;18.00;99.90;;;;;;6318093;28;19986;-67
2021/08/04 08:53:21;;;;;;;;;;;18.00;99.90;;;;;;6316411;28;19972;-67
2021/08/04 08:56:23;;;;;;;;;;;18.10;99.90;;;;;;6314485;28;20020;-67
2021/08/04 08:59:25;;;;;;;;;;;18.20;99.90;;;;;;6332409;28;20071;-66
2021/08/04 09:02:27;;;;;;;;;;;18.30;99.90;;;;;;6344502;28;19979;-66
2021/08/04 09:05:45;;;;;;;;;;;18.40;99.90;;;;;;6345801;28;19978;-67
2021/08/04 09:08:47;;;;;;;;;;;18.40;99.90;;;;;;6339796;28;20021;-67
2021/08/04 09:11:50;;;;;;;;;;;18.50;99.90;;;;;;6319143;28;20380;-67
2021/08/04 09:14:52;;;;;;;;;;;18.50;99.90;;;;;;6343293;28;19941;-67
2021/08/04 09:18:01;;;;;;;;;;;18.50;99.90;;;;;;6309183;28;19979;-67
2021/08/04 09:21:03;;;;;;;;;;;18.50;99.90;;;;;;6340720;28;20003;-67
2021/08/04 09:24:05;;;;;;;;;;;18.60;99.90;;;;;;6308789;28;19984;-66
2021/08/04 09:27:06;;;;;;;;;;;18.70;99.90;;;;;;6343350;28;20337;-67
2021/08/04 09:30:09;;;;;;;;;;;18.80;99.90;;;;;;6346277;28;19964;-67
2021/08/04 09:33:25;;;;;;;;;;;18.80;99.90;;;;;;6342878;28;19983;-67
2021/08/04 09:36:28;;;;;;;;;;;18.90;99.90;;;;;;6344572;28;19983;-67
2021/08/04 09:39:31;;;;;;;;;;;19.00;99.90;;;;;;6344591;28;20276;-67
2021/08/04 09:42:40;;;;;;;;;;;19.10;99.90;;;;;;6344919;28;20455;-67
2021/08/04 09:45:43;;;;;;;;;;;19.10;99.90;;;;;;6343226;28;19987;-66
2021/08/04 09:48:44;;;;;;;;;;;19.10;99.90;;;;;;6339233;28;20019;-67
2021/08/04 09:52:01;;;;;;;;;;;19.20;99.90;;;;;;6346804;28;19972;-67
2021/08/04 09:55:13;;;;;;;;;;;19.30;99.90;;;;;;6343655;28;19977;-67
2021/08/04 09:58:22;;;;;;;;;;;19.40;99.90;;;;;;6339107;28;19989;-67
2021/08/04 10:01:37;;;;;;;;;;;19.40;99.90;;;;;;6345534;28;20354;-67
2021/08/04 10:04:39;;;;;;;;;;;19.50;99.90;;;;;;6341844;28;19983;-66
2021/08/04 10:08:02;;;;;;;;;;;19.40;99.90;;;;;;6339553;28;19972;-67
2021/08/04 10:11:05;;;;;;;;;;;19.50;99.90;;;;;;6345552;28;20345;-67
2021/08/04 10:14:07;;;;;;;;;;;19.60;99.90;;;;;;6343285;28;20343;-67
2021/08/04 10:17:08;;;;;;;;;;;19.60;99.90;;;;;;6342687;28;19976;-67
2021/08/04 10:20:10;;;;;;;;;;;19.60;99.90;;;;;;6332254;28;20360;-66
2021/08/04 10:23:13;;;;;;;;;;;19.60;99.90;;;;;;6344036;28;20426;-67
2021/08/04 10:26:15;;;;;;;;;;;19.70;99.90;;;;;;6343593;28;19979;-67
2021/08/04 10:29:18;;;;;;;;;;;19.70;99.90;;;;;;6315851;28;19999;-68
2021/08/04 10:32:20;;;;;;;;;;;19.80;99.90;;;;;;6325432;28;19976;-67
2021/08/04 10:35:22;;;;;;;;;;;19.80;99.90;;;;;;6343046;28;20415;-67
2021/08/04 10:38:26;;;;;;;;;;;19.90;99.90;;;;;;6324269;28;19976;-66
2021/08/04 10:41:28;;;;;;;;;;;19.90;99.90;;;;;;6345029;28;19979;-67
2021/08/04 10:44:30;;;;;;;;;;;19.90;99.90;;;;;;6341589;28;19983;-67
2021/08/04 10:47:32;;;;;;;;;;;19.90;99.90;;;;;;6341432;28;19983;-67
2021/08/04 10:50:33;;;;;;;;;;;19.80;99.90;;;;;;6316414;28;19999;-67
2021/08/04 10:53:55;;;;;;;;;;;19.80;99.90;;;;;;6343491;28;19981;-67
2021/08/04 10:56:56;;;;;;;;;;;19.80;99.90;;;;;;6320406;28;19972;-67
2021/08/04 11:00:18;;;;;;;;;;;19.80;99.90;;;;;;6342208;28;19987;-67
2021/08/04 11:03:38;;;;;;;;;;;19.90;99.90;;;;;;6342469;28;19964;-67
2021/08/04 11:06:58;;;;;;;;;;;19.90;99.90;;;;;;6342775;28;19976;-67
2021/08/04 11:10:01;;;;;;;;;;;20.00;99.90;;;;;;6342697;28;20392;-67
2021/08/04 11:13:03;;;;;;;;;;;20.10;99.90;;;;;;6317787;28;19983;-67
2021/08/04 11:16:23;;;;;;;;;;;20.20;99.90;;;;;;6344043;28;20027;-67
2021/08/04 11:19:25;;;;;;;;;;;20.30;99.90;;;;;;6328531;28;20344;-67
2021/08/04 11:22:27;;;;;;;;;;;20.30;99.90;;;;;;6344229;28;20323;-67
2021/08/04 11:25:35;;;;;;;;;;;20.30;99.90;;;;;;6329670;28;19980;-67
2021/08/04 11:28:45;;;;;;;;;;;20.50;99.90;;;;;;6317372;28;19983;-67
2021/08/04 11:32:06;;;;;;;;;;;20.60;99.90;;;;;;6347853;28;19972;-67
2021/08/04 11:35:15;;;;;;;;;;;20.80;99.90;;;;;;6347095;28;20089;-67
2021/08/04 11:38:33;;;;;;;;;;;20.90;99.90;;;;;;6343043;28;19976;-67
2021/08/04 11:41:35;;;;;;;;;;;21.00;99.90;;;;;;6343878;28;19973;-67
2021/08/04 11:44:36;;;;;;;;;;;21.00;99.90;;;;;;6312852;28;19954;-67
2021/08/04 11:47:38;;;;;;;;;;;21.00;99.90;;;;;;6324641;28;19991;-67
2021/08/04 11:50:43;;;;;;;;;;;21.00;99.90;;;;;;6349069;28;19998;-67
2021/08/04 11:53:45;;;;;;;;;;;21.00;99.90;;;;;;6347477;28;19998;-67
2021/08/04 11:56:47;;;;;;;;;;;21.00;99.90;;;;;;6346682;28;20264;-67
2021/08/04 11:59:50;;;;;;;;;;;21.10;99.90;;;;;;6318902;28;20058;-67
2021/08/04 12:02:52;;;;;;;;;;;21.10;99.90;;;;;;6346977;28;20025;-67
2021/08/04 12:06:11;;;;;;;;;;;21.10;99.90;;;;;;6347096;28;20442;-66
2021/08/04 12:09:17;;;;;;;;;;;21.10;99.90;;;;;;6344599;28;19995;-67
2021/08/04 12:12:19;;;;;;;;;;;21.10;99.90;;;;;;6347355;28;19979;-67
2021/08/04 12:15:23;;;;;;;;;;;21.10;99.90;;;;;;6339825;28;20037;-67
2021/08/04 12:18:25;;;;;;;;;;;21.00;99.90;;;;;;6340261;28;19979;-67
2021/08/04 12:21:26;;;;;;;;;;;20.90;99.90;;;;;;6321527;28;20404;-67
2021/08/04 12:24:50;;;;;;;;;;;20.90;99.90;;;;;;6309467;28;19979;-67
2021/08/04 12:27:53;;;;;;;;;;;21.00;99.90;;;;;;6309600;28;19972;-67
2021/08/04 12:30:55;;;;;;;;;;;21.10;99.90;;;;;;6347510;28;20002;-67
2021/08/04 12:34:07;;;;;;;;;;;21.20;99.90;;;;;;6320092;28;19980;-67
2021/08/04 12:37:10;;;;;;;;;;;21.20;99.90;;;;;;6342093;28;19980;-67
2021/08/04 12:40:18;;;;;;;;;;;21.30;99.90;;;;;;6347769;28;19980;-67
2021/08/04 12:43:21;;;;;;;;;;;21.40;99.90;;;;;;6342884;28;20029;-67
2021/08/04 12:46:30;;;;;;;;;;;21.30;99.90;;;;;;6346186;28;19978;-67
2021/08/04 12:49:32;;;;;;;;;;;21.30;99.90;;;;;;6345709;28;19998;-67
2021/08/04 12:52:38;;;;;;;;;;;21.40;99.90;;;;;;6346537;28;19987;-68
2021/08/04 12:55:55;;;;;;;;;;;21.40;99.90;;;;;;6345947;28;19983;-67
2021/08/04 12:58:56;;;;;;;;;;;21.40;99.90;;;;;;6326092;28;19976;-68
2021/08/04 13:02:08;;;;;;;;;;;21.30;99.90;;;;;;6347756;28;19983;-67
2021/08/04 13:05:10;;;;;;;;;;;21.40;99.90;;;;;;6345313;28;19976;-67
2021/08/04 13:08:27;;;;;;;;;;;21.40;99.90;;;;;;6340958;28;19976;-67
2021/08/04 13:11:28;;;;;;;;;;;21.50;99.90;;;;;;6346678;28;20350;-67
2021/08/04 13:14:53;;;;;;;;;;;21.50;99.90;;;;;;6322986;28;19976;-67
2021/08/04 13:17:56;;;;;;;;;;;21.50;99.90;;;;;;6339461;28;19972;-67
2021/08/04 13:21:10;;;;;;;;;;;21.50;99.90;;;;;;6337589;28;20019;-67
2021/08/04 13:24:26;;;;;;;;;;;21.50;99.90;;;;;;6333832;28;19981;-67
2021/08/04 13:27:31;;;;;;;;;;;21.50;99.90;;;;;;6343783;28;19972;-67
2021/08/04 13:30:34;;;;;;;;;;;21.40;99.90;;;;;;6346390;28;19992;-67
2021/08/04 13:33:40;;;;;;;;;;;21.40;99.90;;;;;;6344536;28;19982;-68
2021/08/04 13:36:42;;;;;;;;;;;21.30;99.90;;;;;;6345050;28;20342;-67
2021/08/04 13:39:43;;;;;;;;;;;21.20;99.90;;;;;;6341032;28;20075;-67
2021/08/04 13:42:45;;;;;;;;;;;21.20;99.90;;;;;;6323658;28;19943;-67
2021/08/04 13:45:47;;;;;;;;;;;21.20;99.90;;;;;;6344550;28;20323;-67
2021/08/04 13:48:49;;;;;;;;;;;21.20;99.90;;;;;;6339191;28;20017;-67
2021/08/04 13:51:50;;;;;;;;;;;21.20;99.90;;;;;;6345884;28;20331;-67
2021/08/04 13:54:52;;;;;;;;;;;21.30;99.90;;;;;;6313901;28;19994;-67
2021/08/04 13:57:54;;;;;;;;;;;21.30;99.90;;;;;;6341866;28;20460;-67
2021/08/04 14:00:55;;;;;;;;;;;21.30;99.90;;;;;;6342957;28;19983;-67
2021/08/04 14:03:57;;;;;;;;;;;21.30;99.90;;;;;;6316140;28;20059;-67
2021/08/04 14:07:00;;;;;;;;;;;21.30;99.90;;;;;;6308073;28;20124;-67
2021/08/04 14:10:03;;;;;;;;;;;21.20;99.90;;;;;;6342660;28;20470;-67
2021/08/04 14:13:06;;;;;;;;;;;21.20;99.90;;;;;;6337784;28;19975;-67
2021/08/04 14:16:08;;;;;;;;;;;21.20;99.90;;;;;;6343407;28;20003;-67
2021/08/04 14:19:10;;;;;;;;;;;21.20;99.90;;;;;;6335360;28;20105;-67
2021/08/04 14:22:14;;;;;;;;;;;21.20;99.90;;;;;;6338312;28;21409;-67
2021/08/04 14:25:16;;;;;;;;;;;21.20;99.90;;;;;;6337489;28;19955;-67
2021/08/04 14:28:18;;;;;;;;;;;21.10;99.90;;;;;;6343067;28;19999;-67
2021/08/04 14:31:20;;;;;;;;;;;21.10;99.90;;;;;;6344980;28;20059;-67
2021/08/04 14:34:21;;;;;;;;;;;21.10;99.90;;;;;;6316717;28;19973;-67
2021/08/04 14:37:23;;;;;;;;;;;21.10;99.90;;;;;;6342100;28;20045;-69
2021/08/04 14:40:24;;;;;;;;;;;21.10;99.90;;;;;;6315769;28;19980;-69
2021/08/04 14:43:26;;;;;;;;;;;21.00;99.90;;;;;;6319104;28;20020;-69
2021/08/04 14:46:28;;;;;;;;;;;21.00;99.90;;;;;;6307826;28;19979;-69
2021/08/04 14:49:30;;;;;;;;;;;21.00;99.90;;;;;;6317633;28;19986;-69
2021/08/04 14:52:31;;;;;;;;;;;21.00;99.90;;;;;;6311960;28;20007;-70
2021/08/04 14:55:33;;;;;;;;;;;21.00;99.90;;;;;;6342909;28;20378;-70
2021/08/04 14:58:36;;;;;;;;;;;21.00;99.90;;;;;;6338022;28;20074;-69
2021/08/04 15:01:38;;;;;;;;;;;21.00;99.90;;;;;;6338717;28;20339;-70
2021/08/04 15:04:40;;;;;;;;;;;21.00;99.90;;;;;;6340700;28;19980;-70
2021/08/04 15:07:41;;;;;;;;;;;21.00;99.90;;;;;;6339105;28;19979;-69
2021/08/04 15:10:43;;;;;;;;;;;21.00;99.90;;;;;;6344963;28;20045;-69
2021/08/04 15:13:45;;;;;;;;;;;21.00;99.90;;;;;;6341617;28;19976;-70
2021/08/04 15:16:47;;;;;;;;;;;21.00;99.90;;;;;;6344131;28;19987;-69
2021/08/04 15:19:48;;;;;;;;;;;21.10;99.90;;;;;;6295339;28;20034;-70
2021/08/04 15:22:50;;;;;;;;;;;21.10;99.90;;;;;;6297886;28;19972;-70
2021/08/04 15:25:52;;;;;;;;;;;21.10;99.90;;;;;;6297371;28;20411;-67
2021/08/04 15:28:54;;;;;;;;;;;21.10;99.90;;;;;;6314486;28;19985;-67
2021/08/04 15:31:56;;;;;;;;;;;21.10;99.90;;;;;;6314516;28;19988;-67
2021/08/04 15:34:58;;;;;;;;;;;21.10;99.90;;;;;;6311687;28;20506;-67
2021/08/04 15:38:00;;;;;;;;;;;21.10;99.90;;;;;;6313574;28;19980;-67
2021/08/04 15:41:02;;;;;;;;;;;21.10;99.90;;;;;;6315349;28;20327;-67
2021/08/04 15:44:05;;;;;;;;;;;21.20;99.90;;;;;;6295858;28;20438;-67
2021/08/04 15:47:07;;;;;;;;;;;21.20;99.90;;;;;;6315658;28;19976;-67
2021/08/04 15:50:09;;;;;;;;;;;21.30;99.90;;;;;;6314353;28;20154;-67
2021/08/04 15:53:10;;;;;;;;;;;21.30;99.90;;;;;;6313578;28;19971;-67
2021/08/04 15:56:12;;;;;;;;;;;21.40;99.90;;;;;;6313302;28;19980;-67
2021/08/04 15:59:14;;;;;;;;;;;21.40;99.90;;;;;;6314684;28;20438;-67
2021/08/04 16:02:15;;;;;;;;;;;21.40;99.90;;;;;;6314126;28;19951;-67
2021/08/04 16:05:17;;;;;;;;;;;21.30;99.90;;;;;;6316566;28;20117;-67
2021/08/04 16:08:19;;;;;;;;;;;21.30;99.90;;;;;;6317678;28;19975;-67
2021/08/04 16:11:20;;;;;;;;;;;21.20;99.90;;;;;;6317580;28;20010;-67
2021/08/04 16:14:22;;;;;;;;;;;21.20;99.90;;;;;;6297938;28;20402;-67
2021/08/04 16:17:24;;;;;;;;;;;21.20;99.90;;;;;;6319800;28;19982;-67
2021/08/04 16:20:25;;;;;;;;;;;21.10;99.90;;;;;;6318171;28;20023;-67
2021/08/04 16:23:27;;;;;;;;;;;21.10;99.90;;;;;;6317930;28;19979;-67
2021/08/04 16:26:29;;;;;;;;;;;21.10;99.90;;;;;;6320495;28;19976;-67
2021/08/04 16:29:31;;;;;;;;;;;21.00;99.90;;;;;;6301510;28;20019;-67
2021/08/04 16:32:34;;;;;;;;;;;21.00;99.90;;;;;;6318448;28;19994;-67
2021/08/04 16:35:36;;;;;;;;;;;21.10;99.90;;;;;;6317383;28;20102;-67
2021/08/04 16:38:39;;;;;;;;;;;21.20;99.90;;;;;;6300228;28;19972;-67
2021/08/04 16:41:41;;;;;;;;;;;21.40;99.90;;;;;;6317734;28;19972;-67
2021/08/04 16:44:43;;;;;;;;;;;21.60;99.90;;;;;;6315357;28;20403;-67
2021/08/04 16:47:44;;;;;;;;;;;21.80;99.90;;;;;;6317750;28;20057;-67
2021/08/04 16:50:47;;;;;;;;;;;21.90;99.90;;;;;;6301656;28;19998;-67
2021/08/04 16:53:48;;;;;;;;;;;21.90;99.90;;;;;;6298936;28;19983;-67
2021/08/04 16:56:51;;;;;;;;;;;21.90;99.90;;;;;;6318233;28;19991;-67
2021/08/04 17:00:00;;;;;;;;;;;21.80;99.90;;;;;;6317189;28;19972;-67
2021/08/04 17:03:01;;;;;;;;;;;21.80;99.90;;;;;;6299357;28;19984;-68
2021/08/04 17:06:03;;;;;;;;;;;21.70;99.90;;;;;;6297416;28;20093;-67
2021/08/04 17:09:05;;;;;;;;;;;21.70;99.90;;;;;;6316737;28;19995;-67
2021/08/04 17:12:07;;;;;;;;;;;21.50;99.90;;;;;;6315904;28;19999;-67
2021/08/04 17:15:08;;;;;;;;;;;21.50;99.90;;;;;;6298271;28;20431;-67
2021/08/04 17:18:10;;;;;;;;;;;21.40;99.90;;;;;;6317213;28;19980;-67
2021/08/04 17:21:12;;;;;;;;;;;21.40;99.90;;;;;;6298250;28;20362;-67
2021/08/04 17:24:13;;;;;;;;;;;21.30;99.90;;;;;;6298607;28;19976;-67
2021/08/04 17:27:15;;;;;;;;;;;21.30;99.90;;;;;;6316254;28;19976;-67
2021/08/04 17:30:17;;;;;;;;;;;21.30;99.90;;;;;;6298081;28;20475;-67
2021/08/04 17:33:19;;;;;;;;;;;21.30;99.90;;;;;;6317723;28;19979;-67
2021/08/04 17:36:21;;;;;;;;;;;21.20;99.90;;;;;;6296857;28;19976;-67
2021/08/04 17:39:23;;;;;;;;;;;21.20;99.90;;;;;;6297021;28;19984;-67
2021/08/04 17:42:24;;;;;;;;;;;21.10;99.90;;;;;;6298242;28;19980;-67
2021/08/04 17:45:26;;;;;;;;;;;21.10;99.90;;;;;;6297770;28;19979;-67